Time;durP1;ratioP1;P1;durP2;ratioP2;P2;SDS_P1;SDS_P2;PMS_P1;PMS_P2;Temp;Humidity;BMP_temperature;BMP_pressure;BME280_temperature;BME280_humidity;BME280_pressure;Samples;Min_cycle;Max_cycle;Signal;HPM_P1;HPM_P2
2023/02/02 00:01:31;;;;;;;11.90;8.07;;;20.30;35.10;;;;;;5051357;28;20068;-68
2023/02/02 00:03:59;;;;;;;9.63;7.10;;;20.30;35.10;;;;;;5052255;28;20056;-68
2023/02/02 00:06:28;;;;;;;10.02;7.50;;;20.30;35.10;;;;;;5051872;28;20128;-67
2023/02/02 00:08:57;;;;;;;10.63;7.82;;;20.30;35.10;;;;;;5050770;28;20101;-67
2023/02/02 00:11:25;;;;;;;9.98;7.43;;;20.20;35.10;;;;;;5052633;28;20056;-68
2023/02/02 00:13:53;;;;;;;8.82;7.07;;;20.20;35.10;;;;;;5053067;28;20049;-67
2023/02/02 00:16:48;;;;;;;10.65;7.75;;;20.20;35.10;;;;;;5052671;28;20185;-68
2023/02/02 00:19:20;;;;;;;9.75;7.28;;;20.20;35.10;;;;;;5052044;28;20053;-67
2023/02/02 00:21:47;;;;;;;10.10;7.13;;;20.20;35.60;;;;;;5051612;28;20052;-67
2023/02/02 00:24:19;;;;;;;9.98;7.00;;;20.20;35.00;;;;;;5052079;28;20052;-67
2023/02/02 00:26:49;;;;;;;9.80;7.05;;;20.20;35.10;;;;;;5052399;28;20045;-67
2023/02/02 00:29:29;;;;;;;8.95;6.60;;;20.20;35.00;;;;;;5052355;28;20057;-67
2023/02/02 00:31:56;;;;;;;11.60;7.60;;;20.20;35.00;;;;;;5052288;28;20051;-67
2023/02/02 00:34:24;;;;;;;9.20;7.07;;;20.20;35.00;;;;;;5052466;28;20123;-67
2023/02/02 00:36:51;;;;;;;7.63;6.28;;;20.20;35.00;;;;;;5052434;28;20044;-67
2023/02/02 00:39:21;;;;;;;8.00;5.70;;;20.20;35.10;;;;;;5052980;28;20051;-67
2023/02/02 00:41:48;;;;;;;9.05;6.30;;;20.20;35.00;;;;;;5052974;28;20396;-67
2023/02/02 00:47:03;;;;;;;8.13;6.18;;;20.20;35.00;;;;;;5043486;28;20055;-67
2023/02/02 00:49:30;;;;;;;7.18;6.15;;;20.20;35.00;;;;;;5050351;28;20049;-67
2023/02/02 00:51:59;;;;;;;6.97;5.60;;;20.20;35.00;;;;;;5054179;28;20045;-70
2023/02/02 00:54:27;;;;;;;9.43;6.55;;;20.20;35.00;;;;;;5055816;28;20056;-71
2023/02/02 00:56:54;;;;;;;8.02;6.22;;;20.20;35.00;;;;;;5055820;28;20076;-71
2023/02/02 00:59:21;;;;;;;8.05;6.45;;;20.20;34.90;;;;;;5055641;28;20045;-71
2023/02/02 01:01:48;;;;;;;8.10;6.10;;;20.20;35.50;;;;;;5055802;28;20045;-71
2023/02/02 01:04:15;;;;;;;8.57;5.88;;;20.20;34.90;;;;;;5055607;28;20045;-71
2023/02/02 01:06:42;;;;;;;7.85;5.90;;;20.20;35.00;;;;;;5055919;28;20041;-71
2023/02/02 01:09:09;;;;;;;7.32;5.75;;;20.20;34.90;;;;;;5054742;28;20507;-71
2023/02/02 01:11:36;;;;;;;8.43;6.07;;;20.20;34.90;;;;;;5055442;28;20049;-71
2023/02/02 01:14:04;;;;;;;7.95;5.75;;;20.20;34.90;;;;;;5054826;28;20516;-71
2023/02/02 01:16:31;;;;;;;8.18;5.53;;;20.20;34.90;;;;;;5059448;28;20501;-71
2023/02/02 01:18:58;;;;;;;7.63;5.63;;;20.20;35.00;;;;;;5059108;28;20052;-71
2023/02/02 01:21:25;;;;;;;6.72;5.90;;;20.20;34.90;;;;;;5058715;28;20088;-71
2023/02/02 01:23:52;;;;;;;6.07;5.45;;;20.20;34.90;;;;;;5059480;28;20056;-71
2023/02/02 01:26:19;;;;;;;8.18;5.57;;;20.20;34.90;;;;;;5058832;28;20083;-71
2023/02/02 01:28:46;;;;;;;7.45;5.55;;;20.20;34.90;;;;;;5057761;28;20075;-71
2023/02/02 01:31:17;;;;;;;6.15;4.93;;;20.20;34.90;;;;;;5058306;28;20045;-72
2023/02/02 01:33:45;;;;;;;6.93;5.43;;;20.20;34.90;;;;;;5059420;28;20059;-71
2023/02/02 01:36:21;;;;;;;6.32;5.68;;;20.20;34.90;;;;;;5058669;28;20080;-71
2023/02/02 01:38:49;;;;;;;6.40;5.20;;;20.20;34.90;;;;;;5057980;28;20056;-71
2023/02/02 01:41:20;;;;;;;5.40;4.90;;;20.20;34.90;;;;;;5058156;28;20045;-71
2023/02/02 01:43:54;;;;;;;6.72;5.28;;;20.20;34.90;;;;;;5059136;28;20051;-71
2023/02/02 01:46:30;;;;;;;7.20;4.85;;;20.20;34.90;;;;;;5058885;28;20049;-71
2023/02/02 01:49:06;;;;;;;7.60;5.78;;;20.20;34.90;;;;;;5057694;28;20054;-71
2023/02/02 01:51:47;;;;;;;7.25;5.00;;;20.20;34.90;;;;;;5058941;28;20091;-71
2023/02/02 01:54:28;;;;;;;6.97;5.18;;;20.20;34.90;;;;;;5057620;28;20053;-71
2023/02/02 01:56:59;;;;;;;6.80;5.07;;;20.20;34.90;;;;;;5050333;28;20443;-71
2023/02/02 01:59:28;;;;;;;5.95;5.07;;;20.10;34.80;;;;;;5057788;28;20063;-71
2023/02/02 02:01:57;;;;;;;5.00;4.28;;;20.10;34.80;;;;;;5058642;28;20049;-71
2023/02/02 02:04:26;;;;;;;9.82;5.30;;;20.10;34.80;;;;;;5058290;28;20044;-71
2023/02/02 02:06:53;;;;;;;7.57;5.13;;;20.20;34.90;;;;;;5058625;28;20548;-71
2023/02/02 02:09:21;;;;;;;6.35;4.72;;;20.10;34.80;;;;;;5057946;28;20049;-71
2023/02/02 02:11:48;;;;;;;7.30;5.20;;;20.10;34.80;;;;;;5058050;28;20041;-70
2023/02/02 02:17:43;;;;;;;6.00;4.45;;;20.10;34.80;;;;;;5057074;28;20048;-71
2023/02/02 02:27:11;;;;;;;7.53;4.88;;;20.10;34.80;;;;;;5057138;28;20675;-71
2023/02/02 02:30:14;;;;;;;5.63;4.13;;;20.10;34.80;;;;;;5057525;28;20052;-71
2023/02/02 02:33:02;;;;;;;4.95;4.13;;;20.10;34.80;;;;;;5057111;28;20485;-71
2023/02/02 02:35:52;;;;;;;6.05;4.88;;;20.10;34.80;;;;;;5057885;28;20053;-71
2023/02/02 02:38:35;;;;;;;5.45;4.22;;;20.10;34.80;;;;;;5057169;28;20288;-68
2023/02/02 02:41:12;;;;;;;4.40;3.95;;;20.10;34.80;;;;;;5057415;28;20476;-71
2023/02/02 02:43:45;;;;;;;6.10;4.38;;;20.10;34.80;;;;;;5056902;28;20048;-71
2023/02/02 02:46:12;;;;;;;5.53;4.30;;;20.10;34.90;;;;;;5057370;28;20130;-71
2023/02/02 02:48:43;;;;;;;5.18;4.45;;;20.10;34.90;;;;;;5057085;28;20049;-71
2023/02/02 02:51:42;;;;;;;6.75;4.40;;;20.10;34.90;;;;;;5056830;28;20045;-71
2023/02/02 02:54:14;;;;;;;5.70;4.18;;;20.10;34.80;;;;;;5056635;28;20053;-72
2023/02/02 02:57:03;;;;;;;5.22;4.10;;;20.10;34.80;;;;;;5057610;28;20045;-69
2023/02/02 02:59:52;;;;;;;5.60;4.07;;;20.10;34.80;;;;;;5055985;28;20052;-71
2023/02/02 03:02:43;;;;;;;4.43;3.60;;;20.10;34.80;;;;;;5054357;28;20051;-71
2023/02/02 03:05:49;;;;;;;4.65;3.72;;;20.10;34.80;;;;;;5057490;28;20132;-71
2023/02/02 03:08:28;;;;;;;5.78;4.40;;;20.10;34.80;;;;;;5056093;28;20059;-71
2023/02/02 03:10:57;;;;;;;4.38;3.97;;;20.10;34.80;;;;;;5056646;28;20056;-71
2023/02/02 03:13:25;;;;;;;5.40;4.38;;;20.10;34.80;;;;;;5056518;28;20045;-71
2023/02/02 03:15:53;;;;;;;5.03;4.10;;;20.10;34.70;;;;;;5057134;28;20055;-71
2023/02/02 03:18:23;;;;;;;5.07;4.15;;;20.10;34.70;;;;;;5056475;28;20196;-71
2023/02/02 03:20:51;;;;;;;4.55;3.85;;;20.10;34.70;;;;;;5056703;28;20045;-71
2023/02/02 03:23:18;;;;;;;5.65;4.82;;;20.10;34.70;;;;;;5056537;28;20071;-71
2023/02/02 03:25:45;;;;;;;4.90;4.05;;;20.10;34.70;;;;;;5046925;28;20052;-71
2023/02/02 03:28:14;;;;;;;4.60;3.85;;;20.20;34.80;;;;;;5046701;28;20448;-71
2023/02/02 03:30:43;;;;;;;5.05;4.22;;;20.10;34.70;;;;;;5047577;28;20048;-71
2023/02/02 03:33:12;;;;;;;4.32;3.92;;;20.10;34.70;;;;;;5048766;28;20102;-71
2023/02/02 03:35:39;;;;;;;4.95;4.35;;;20.10;34.70;;;;;;5055964;28;20067;-71
2023/02/02 03:38:07;;;;;;;5.78;3.80;;;20.10;34.70;;;;;;5055119;28;20060;-71
2023/02/02 03:40:34;;;;;;;4.25;3.67;;;20.10;34.70;;;;;;5056005;28;20063;-71
2023/02/02 03:43:01;;;;;;;4.95;3.70;;;20.10;34.70;;;;;;5056355;28;20045;-71
2023/02/02 03:45:30;;;;;;;4.50;3.70;;;20.10;34.70;;;;;;5056449;28;20413;-71
2023/02/02 03:47:58;;;;;;;4.78;4.07;;;20.10;34.70;;;;;;5053054;28;20049;-71
2023/02/02 03:50:25;;;;;;;4.65;3.63;;;20.10;34.70;;;;;;5047748;28;20486;-71
2023/02/02 03:52:54;;;;;;;4.20;3.58;;;20.10;34.70;;;;;;5045466;28;20048;-71
2023/02/02 03:55:21;;;;;;;3.45;3.10;;;20.10;34.70;;;;;;5053948;28;20055;-71
2023/02/02 03:57:48;;;;;;;4.82;4.03;;;20.10;34.70;;;;;;5055294;28;20036;-72
2023/02/02 04:00:15;;;;;;;4.07;3.67;;;20.10;34.70;;;;;;5051781;28;20059;-71
2023/02/02 04:02:43;;;;;;;4.38;3.78;;;20.10;34.60;;;;;;5050345;28;20041;-71
2023/02/02 04:05:10;;;;;;;4.93;4.43;;;20.10;34.70;;;;;;5056901;28;20053;-71
2023/02/02 04:07:37;;;;;;;3.83;3.35;;;20.10;34.70;;;;;;5055731;28;20045;-71
2023/02/02 04:10:04;;;;;;;4.13;3.72;;;20.10;34.70;;;;;;5056718;28;20049;-71
2023/02/02 04:12:31;;;;;;;5.40;4.55;;;20.10;34.70;;;;;;5056249;28;20055;-71
2023/02/02 04:14:58;;;;;;;5.50;3.88;;;20.10;34.70;;;;;;5056268;28;20484;-71
2023/02/02 04:17:25;;;;;;;3.90;3.50;;;20.10;34.70;;;;;;5055977;28;20049;-71
2023/02/02 04:19:56;;;;;;;4.97;3.83;;;20.10;34.70;;;;;;5056004;28;20499;-71
2023/02/02 04:22:25;;;;;;;5.03;3.88;;;20.10;34.70;;;;;;5055965;28;20052;-71
2023/02/02 04:24:52;;;;;;;4.70;3.72;;;20.10;34.80;;;;;;5056019;28;20049;-71
2023/02/02 04:27:19;;;;;;;4.55;3.40;;;20.10;34.80;;;;;;5056120;28;20059;-71
2023/02/02 04:29:46;;;;;;;3.88;3.15;;;20.10;34.80;;;;;;5055859;28;20553;-70
2023/02/02 04:32:15;;;;;;;3.08;2.78;;;20.00;34.70;;;;;;5056024;28;20049;-71
2023/02/02 04:34:43;;;;;;;3.63;3.20;;;20.00;34.70;;;;;;5055898;28;20128;-71
2023/02/02 04:37:11;;;;;;;4.40;3.35;;;20.00;34.70;;;;;;5055634;28;20049;-71
2023/02/02 04:39:38;;;;;;;4.22;3.08;;;20.00;34.70;;;;;;5055666;28;20056;-71
2023/02/02 04:42:05;;;;;;;3.53;3.00;;;20.00;34.70;;;;;;5054458;28;20055;-71
2023/02/02 04:44:32;;;;;;;3.30;3.00;;;20.00;34.70;;;;;;5062623;28;20114;-71
2023/02/02 04:46:59;;;;;;;3.95;3.33;;;20.00;34.70;;;;;;5075729;28;20045;-71
2023/02/02 04:49:26;;;;;;;3.83;2.88;;;20.00;34.70;;;;;;5074064;28;20375;-71
2023/02/02 04:51:53;;;;;;;2.60;2.40;;;20.00;34.70;;;;;;5078685;28;20432;-71
2023/02/02 04:54:21;;;;;;;3.08;2.60;;;20.00;34.70;;;;;;5070914;28;20072;-71
2023/02/02 04:56:48;;;;;;;3.40;2.92;;;20.00;34.70;;;;;;5050602;28;20389;-68
2023/02/02 04:59:15;;;;;;;3.22;2.80;;;20.00;34.70;;;;;;5060238;28;20129;-71
2023/02/02 05:01:42;;;;;;;3.28;2.90;;;19.90;34.70;;;;;;5059341;28;20547;-70
2023/02/02 05:04:12;;;;;;;3.33;2.80;;;19.90;34.80;;;;;;5059719;28;20416;-71
2023/02/02 05:06:39;;;;;;;4.00;3.00;;;19.90;34.80;;;;;;5059655;28;20393;-71
2023/02/02 05:09:06;;;;;;;2.45;2.25;;;19.90;34.80;;;;;;5059073;28;20481;-70
2023/02/02 05:11:33;;;;;;;2.65;2.42;;;20.00;34.90;;;;;;5060212;28;20045;-70
2023/02/02 05:14:00;;;;;;;4.03;2.78;;;19.90;34.80;;;;;;5059493;28;20508;-71
2023/02/02 05:16:27;;;;;;;3.53;2.70;;;19.90;34.80;;;;;;5057769;28;20095;-70
2023/02/02 05:18:56;;;;;;;3.75;2.85;;;19.90;34.90;;;;;;5059278;28;20044;-71
2023/02/02 05:21:24;;;;;;;3.13;2.80;;;20.00;34.90;;;;;;5058656;28;20091;-70
2023/02/02 05:23:51;;;;;;;2.67;2.47;;;20.00;34.90;;;;;;5059032;28;20481;-70
2023/02/02 05:26:24;;;;;;;2.97;2.70;;;20.00;34.90;;;;;;5056811;28;20045;-71
2023/02/02 05:28:51;;;;;;;2.75;2.55;;;20.00;34.90;;;;;;5080178;28;20462;-70
2023/02/02 05:31:19;;;;;;;3.13;2.53;;;19.90;34.90;;;;;;5076525;28;20127;-71
2023/02/02 05:33:46;;;;;;;2.70;2.50;;;19.90;34.90;;;;;;5060781;28;20473;-70
2023/02/02 05:36:13;;;;;;;3.30;2.70;;;20.00;34.90;;;;;;5052608;28;20056;-69
2023/02/02 05:38:40;;;;;;;2.70;2.25;;;19.90;35.30;;;;;;5050054;28;20048;-71
2023/02/02 05:41:08;;;;;;;2.47;2.20;;;19.90;34.70;;;;;;5052093;28;20128;-70
2023/02/02 05:43:35;;;;;;;2.67;2.08;;;20.00;34.60;;;;;;5046881;28;20087;-71
2023/02/02 05:46:02;;;;;;;2.47;2.10;;;19.90;34.60;;;;;;5051800;28;20311;-70
2023/02/02 05:48:29;;;;;;;3.15;2.33;;;19.90;34.60;;;;;;5052622;28;20048;-70
2023/02/02 05:51:10;;;;;;;2.72;2.10;;;19.90;34.70;;;;;;5055240;28;20044;-70
2023/02/02 05:53:37;;;;;;;;;;;19.90;34.70;;;;;;5049752;28;20073;-70
2023/02/02 05:56:04;;;;;;;2.10;1.90;;;19.90;34.70;;;;;;5044847;28;19927;-70
2023/02/02 05:58:31;;;;;;;2.45;2.25;;;19.90;34.70;;;;;;5051085;28;20103;-70
2023/02/02 06:00:58;;;;;;;2.50;2.30;;;19.90;34.80;;;;;;5045133;28;20042;-70
2023/02/02 06:03:25;;;;;;;1.63;1.52;;;19.90;34.80;;;;;;5046894;28;20060;-70
2023/02/02 06:05:53;;;;;;;2.42;1.73;;;19.90;34.80;;;;;;5056394;28;20048;-70
2023/02/02 06:08:20;;;;;;;1.88;1.77;;;19.90;34.80;;;;;;5048941;28;20160;-70
2023/02/02 06:10:47;;;;;;;1.83;1.73;;;19.90;34.70;;;;;;5047142;28;20045;-71
2023/02/02 06:13:14;;;;;;;2.25;2.05;;;19.90;34.70;;;;;;5044168;28;20079;-70
2023/02/02 06:15:42;;;;;;;1.60;1.50;;;19.90;34.70;;;;;;5043859;28;20045;-73
2023/02/02 06:18:25;;;;;;;1.70;1.60;;;20.00;34.80;;;;;;5043142;28;20048;-67
2023/02/02 06:20:57;;;;;;;2.05;1.77;;;20.00;34.80;;;;;;5046626;28;20553;-66
2023/02/02 06:23:24;;;;;;;1.63;1.50;;;20.00;34.80;;;;;;5042765;28;20126;-72
2023/02/02 06:25:52;;;;;;;1.50;1.20;;;20.00;34.70;;;;;;5045243;28;20053;-68
2023/02/02 06:28:19;;;;;;;1.52;1.42;;;20.00;34.90;;;;;;5052764;28;20053;-70
2023/02/02 06:34:37;;;;;;;;;;;20.20;35.10;;;;;;5047878;28;20031;-69
2023/02/02 06:37:04;;;;;;;1.48;1.35;;;20.20;35.00;;;;;;5042062;28;19920;-68
2023/02/02 06:39:31;;;;;;;4.30;1.70;;;20.20;34.90;;;;;;5040972;28;20041;-67
2023/02/02 06:41:58;;;;;;;6.22;1.30;;;20.30;35.00;;;;;;5054338;28;20500;-69
2023/02/02 06:44:41;;;;;;;1.15;1.05;;;20.30;34.90;;;;;;5056926;28;20071;-65
2023/02/02 06:47:08;;;;;;;2.38;1.23;;;20.30;34.90;;;;;;5056691;28;20087;-68
2023/02/02 06:49:36;;;;;;;1.25;1.15;;;20.30;34.90;;;;;;5048388;28;20071;-68
2023/02/02 06:55:24;;;;;;;1.35;1.25;;;20.40;35.40;;;;;;5362909;23;20054;-66
2023/02/02 06:57:56;;;;;;;2.25;1.20;;;20.50;35.80;;;;;;4996140;28;20415;-73
2023/02/02 07:00:24;;;;;;;3.97;1.55;;;20.50;36.20;;;;;;4997890;28;20086;-76
2023/02/02 07:02:51;;;;;;;4.15;1.50;;;20.60;36.20;;;;;;4997190;28;20043;-71
2023/02/02 07:05:20;;;;;;;1.55;1.45;;;20.60;36.10;;;;;;4997069;28;20517;-71
2023/02/02 07:07:47;;;;;;;7.22;1.55;;;20.60;36.00;;;;;;4997154;28;20666;-74
2023/02/02 07:10:26;;;;;;;4.03;1.65;;;20.70;36.20;;;;;;4992810;28;20052;-65
2023/02/02 07:16:54;;;;;;;;;;;20.80;36.60;;;;;;4997448;28;20037;-70
2023/02/02 07:19:21;;;;;;;3.75;2.00;;;20.90;36.80;;;;;;4996729;28;20020;-74
2023/02/02 07:21:48;;;;;;;6.30;1.90;;;20.90;36.80;;;;;;4996768;28;20402;-66
2023/02/02 07:24:23;;;;;;;5.95;1.88;;;21.00;36.80;;;;;;4992558;28;20052;-74
2023/02/02 07:26:53;;;;;;;3.38;2.25;;;21.00;36.60;;;;;;4992727;28;20411;-71
2023/02/02 07:29:26;;;;;;;4.55;1.95;;;21.10;37.20;;;;;;4992767;28;20062;-67
2023/02/02 07:47:20;;;;;;;5.10;2.88;;;21.30;36.60;;;;;;4984564;28;20048;-72
2023/02/02 07:50:55;;;;;;;5.10;2.55;;;21.40;36.60;;;;;;4994660;28;20072;-70
2023/02/02 07:53:58;;;;;;;3.92;2.40;;;21.40;36.70;;;;;;4983969;28;20046;-63
2023/02/02 07:56:27;;;;;;;6.65;2.42;;;21.50;36.70;;;;;;4996626;28;20129;-72
2023/02/02 07:58:55;;;;;;;3.63;2.63;;;21.50;36.50;;;;;;4996712;28;20053;-71
2023/02/02 08:01:24;;;;;;;7.28;2.65;;;21.60;36.70;;;;;;4991086;28;20589;-69
2023/02/02 08:03:54;;;;;;;6.18;3.00;;;21.60;36.60;;;;;;4996805;28;20054;-76
2023/02/02 08:06:27;;;;;;;6.10;2.10;;;21.60;36.40;;;;;;4996751;28;20129;-66
2023/02/02 08:08:55;;;;;;;7.18;2.58;;;21.70;36.30;;;;;;4993836;28;20054;-67
2023/02/02 08:13:52;;;;;;;6.00;2.75;;;21.70;36.30;;;;;;5016259;23;20058;-74
2023/02/02 08:16:25;;;;;;;7.00;2.95;;;21.80;35.70;;;;;;4989898;28;20054;-73
2023/02/02 08:18:53;;;;;;;5.38;2.50;;;21.80;35.70;;;;;;4985938;28;20129;-70
2023/02/02 08:21:21;;;;;;;4.65;2.50;;;21.80;35.50;;;;;;4997714;28;20406;-70
2023/02/02 08:23:48;;;;;;;3.47;2.08;;;21.80;35.30;;;;;;4985117;28;20692;-69
2023/02/02 08:30:23;;;;;;;4.53;2.28;;;21.80;35.00;;;;;;5033397;23;20173;-68
2023/02/02 08:32:51;;;;;;;7.75;2.22;;;21.80;35.00;;;;;;4984246;28;20081;-66
2023/02/02 08:35:25;;;;;;;2.08;1.60;;;21.80;35.00;;;;;;5001775;28;20038;-67
2023/02/02 08:42:38;;;;;;;2.53;1.80;;;21.90;35.10;;;;;;5008909;28;20037;-66
2023/02/02 08:45:05;;;;;;;4.05;1.90;;;21.90;35.30;;;;;;4998880;28;20475;-65
2023/02/02 08:47:53;;;;;;;3.97;2.10;;;21.90;35.20;;;;;;5007636;28;20355;-63
2023/02/02 08:50:37;;;;;;;3.00;1.98;;;21.90;35.30;;;;;;5000423;28;20054;-67
2023/02/02 08:56:45;;;;;;;4.32;2.17;;;22.10;35.20;;;;;;5008841;28;20061;-66
2023/02/02 08:59:12;;;;;;;3.25;2.10;;;22.10;35.10;;;;;;5003417;28;20046;-65
2023/02/02 09:01:39;;;;;;;7.88;1.92;;;22.10;35.00;;;;;;4998444;28;20049;-72
2023/02/02 09:04:14;;;;;;;4.50;2.00;;;22.10;34.80;;;;;;5013777;28;20136;-67
2023/02/02 09:20:14;;;;;;;5.03;2.00;;;22.30;33.90;;;;;;4996817;28;20120;-64
2023/02/02 09:23:48;;;;;;;4.57;2.00;;;22.40;33.80;;;;;;4987041;28;20050;-68
2023/02/02 09:26:59;;;;;;;5.05;2.22;;;22.40;33.70;;;;;;5005524;28;20084;-71
2023/02/02 09:29:42;;;;;;;4.63;2.50;;;22.50;33.90;;;;;;4995310;28;20105;-75
2023/02/02 09:39:52;;;;;;;8.02;3.78;;;22.50;33.70;;;;;;5014563;28;20041;-73
2023/02/02 09:46:46;;;;;;;9.30;2.95;;;22.60;33.40;;;;;;5005869;28;20092;-69
2023/02/02 09:49:22;;;;;;;7.68;3.47;;;22.60;33.30;;;;;;5017791;28;20142;-66
2023/02/02 09:51:57;;;;;;;5.20;2.75;;;22.60;33.40;;;;;;5017783;28;20133;-69
2023/02/02 09:54:33;;;;;;;9.10;3.30;;;22.70;33.60;;;;;;5017907;28;20060;-66
2023/02/02 09:57:04;;;;;;;9.30;3.60;;;22.70;33.60;;;;;;5018730;28;20056;-76
2023/02/02 09:59:38;;;;;;;9.30;4.18;;;22.70;33.60;;;;;;5010678;28;20124;-72
2023/02/02 10:02:17;;;;;;;9.77;4.38;;;22.70;33.60;;;;;;5018903;28;20088;-74
2023/02/02 10:05:28;;;;;;;9.90;3.25;;;22.70;33.70;;;;;;5003147;28;20125;-73
2023/02/02 10:09:00;;;;;;;9.23;4.32;;;22.80;33.50;;;;;;5001675;28;20478;-68
2023/02/02 10:11:43;;;;;;;9.93;4.38;;;22.90;33.30;;;;;;5014806;28;20053;-68
2023/02/02 10:15:22;;;;;;;10.48;4.35;;;22.90;33.20;;;;;;5007948;28;20046;-71
2023/02/02 10:18:41;;;;;;;10.57;5.00;;;23.00;33.30;;;;;;5006187;28;20053;-67
2023/02/02 10:25:01;;;;;;;12.63;4.47;;;23.00;33.10;;;;;;5009531;28;20129;-73
2023/02/02 10:32:08;;;;;;;11.63;4.32;;;23.10;32.80;;;;;;5541157;23;20049;-74
2023/02/02 10:34:43;;;;;;;9.88;3.38;;;23.10;33.00;;;;;;5021067;28;20128;-70
2023/02/02 10:37:36;;;;;;;8.65;3.83;;;23.10;33.00;;;;;;5017200;28;20053;-74
2023/02/02 10:47:50;;;;;;;6.30;3.80;;;23.30;33.00;;;;;;4985699;28;20060;-71
2023/02/02 10:55:05;;;;;;;7.30;3.72;;;23.40;33.00;;;;;;5031788;28;20791;-66
2023/02/02 10:57:52;;;;;;;8.93;3.13;;;23.40;32.90;;;;;;5008176;28;20049;-68
2023/02/02 11:00:55;;;;;;;10.43;4.28;;;23.40;32.70;;;;;;5005897;28;20183;-69
2023/02/02 11:03:27;;;;;;;11.38;4.38;;;23.50;32.50;;;;;;5025522;28;20573;-67
2023/02/02 11:08:48;;;;;;;11.52;5.95;;;23.60;32.20;;;;;;5013064;28;20905;-67
2023/02/02 11:11:23;;;;;;;15.90;4.50;;;23.60;32.00;;;;;;5024055;28;20060;-67
2023/02/02 11:14:10;;;;;;;11.18;4.47;;;23.60;32.00;;;;;;5022504;28;20049;-67
2023/02/02 11:16:39;;;;;;;11.07;4.13;;;23.70;32.00;;;;;;5021317;28;20081;-70
2023/02/02 11:19:26;;;;;;;7.57;3.72;;;23.70;32.00;;;;;;5019763;28;20053;-70
2023/02/02 11:22:03;;;;;;;8.40;3.72;;;23.70;32.10;;;;;;4973396;28;20437;-70
2023/02/02 11:24:48;;;;;;;10.57;3.95;;;23.60;32.20;;;;;;5020324;28;20133;-70
2023/02/02 11:27:26;;;;;;;9.00;3.30;;;23.70;32.30;;;;;;5018791;28;20501;-64
2023/02/02 11:29:58;;;;;;;6.88;3.08;;;23.70;32.20;;;;;;5020031;28;20046;-62
2023/02/02 11:32:29;;;;;;;6.82;3.05;;;23.70;32.10;;;;;;5024933;28;20045;-67
2023/02/02 11:35:19;;;;;;;7.50;2.65;;;23.70;32.20;;;;;;5023131;28;20049;-64
2023/02/02 11:37:57;;;;;;;5.68;3.00;;;23.70;32.20;;;;;;5008315;28;20455;-65
2023/02/02 11:40:51;;;;;;;7.63;3.67;;;23.60;32.10;;;;;;5008509;28;20052;-66
2023/02/02 11:43:29;;;;;;;5.47;3.15;;;23.70;32.20;;;;;;5017770;28;20057;-65
2023/02/02 11:46:06;;;;;;;6.38;3.38;;;23.70;32.10;;;;;;5020452;28;20064;-65
2023/02/02 11:48:37;;;;;;;5.80;3.47;;;23.70;32.00;;;;;;5019959;28;20053;-66
2023/02/02 11:51:06;;;;;;;5.70;3.42;;;23.70;32.00;;;;;;5018274;28;20053;-66
2023/02/02 11:53:41;;;;;;;6.65;3.70;;;23.70;32.00;;;;;;5022247;28;20496;-65
2023/02/02 11:56:18;;;;;;;3.92;2.80;;;23.70;31.90;;;;;;5021176;28;20431;-65
2023/02/02 11:58:48;;;;;;;4.47;3.03;;;23.80;31.90;;;;;;5017444;28;20056;-65
2023/02/02 12:01:24;;;;;;;7.63;3.20;;;23.80;31.90;;;;;;5018349;28;20092;-66
2023/02/02 12:03:54;;;;;;;5.78;3.00;;;23.70;31.80;;;;;;5003007;28;20140;-65
2023/02/02 12:06:33;;;;;;;7.60;2.95;;;23.80;31.90;;;;;;5020138;28;20057;-65
2023/02/02 12:09:06;;;;;;;4.72;2.60;;;23.80;32.00;;;;;;5020220;28;20124;-63
2023/02/02 12:11:51;;;;;;;3.70;2.60;;;23.80;31.90;;;;;;5019760;28;20042;-67
2023/02/02 12:14:49;;;;;;;3.60;2.15;;;23.70;31.50;;;;;;5024631;28;20052;-67
2023/02/02 12:17:40;;;;;;;4.05;2.40;;;23.70;31.80;;;;;;5024074;28;20049;-67
2023/02/02 12:20:35;;;;;;;3.25;1.75;;;23.80;31.90;;;;;;5023331;28;20301;-67
2023/02/02 12:23:33;;;;;;;2.97;2.45;;;23.70;32.00;;;;;;5023105;28;20145;-68
2023/02/02 12:26:27;;;;;;;2.67;1.80;;;23.80;31.90;;;;;;5017493;28;20705;-68
2023/02/02 12:29:23;;;;;;;3.65;1.70;;;23.80;31.90;;;;;;5024733;28;20050;-69
2023/02/02 12:32:17;;;;;;;2.08;1.60;;;23.90;32.00;;;;;;5023453;28;20060;-65
2023/02/02 12:34:57;;;;;;;2.58;1.60;;;23.80;31.90;;;;;;5007348;28;20128;-69
2023/02/02 12:37:51;;;;;;;5.30;1.67;;;23.90;31.90;;;;;;5020975;28;20060;-67
2023/02/02 12:40:33;;;;;;;4.15;1.77;;;23.90;31.90;;;;;;5023123;28;20107;-67
2023/02/02 12:43:35;;;;;;;3.60;1.58;;;23.90;32.00;;;;;;5021781;28;20041;-67
2023/02/02 12:46:35;;;;;;;6.30;1.90;;;23.90;31.90;;;;;;5021269;28;20064;-66
2023/02/02 12:49:31;;;;;;;3.08;1.67;;;23.90;31.70;;;;;;5022315;28;20061;-68
2023/02/02 12:52:17;;;;;;;3.60;1.95;;;23.90;31.60;;;;;;5022237;28;20049;-65
2023/02/02 12:55:01;;;;;;;2.72;1.30;;;23.80;31.60;;;;;;5023918;28;20465;-67
2023/02/02 12:57:47;;;;;;;2.05;1.20;;;23.80;31.60;;;;;;5019591;28;20057;-70
2023/02/02 13:00:33;;;;;;;1.30;1.20;;;23.80;31.50;;;;;;5019861;28;20046;-67
2023/02/02 13:03:27;;;;;;;1.58;1.27;;;23.80;31.50;;;;;;5021565;28;20080;-68
2023/02/02 13:06:09;;;;;;;2.95;1.60;;;23.80;31.40;;;;;;5006653;28;20050;-64
2023/02/02 13:08:50;;;;;;;1.70;1.23;;;23.80;31.30;;;;;;5020859;28;20061;-71
2023/02/02 13:11:39;;;;;;;1.52;1.40;;;23.80;31.30;;;;;;5025609;28;20056;-67
2023/02/02 13:14:30;;;;;;;2.83;1.40;;;23.70;31.10;;;;;;5026633;28;20485;-67
2023/02/02 13:17:06;;;;;;;2.20;1.42;;;23.70;31.10;;;;;;5024822;28;20492;-64
2023/02/02 13:19:45;;;;;;;2.50;1.40;;;23.70;31.20;;;;;;5025726;28;20050;-67
2023/02/02 13:22:20;;;;;;;2.25;1.35;;;23.80;31.20;;;;;;5026038;28;20115;-67
2023/02/02 13:24:52;;;;;;;3.65;1.80;;;23.80;31.20;;;;;;5023536;28;20711;-64
2023/02/02 13:27:20;;;;;;;2.28;1.35;;;23.70;31.10;;;;;;5025382;28;20084;-66
2023/02/02 13:30:12;;;;;;;2.83;1.65;;;23.70;31.10;;;;;;5028399;28;20041;-65
2023/02/02 13:32:43;;;;;;;2.60;1.70;;;23.70;31.10;;;;;;5022819;28;20061;-64
2023/02/02 13:35:26;;;;;;;2.80;1.70;;;23.70;31.10;;;;;;5025108;28;20045;-68
2023/02/02 13:38:17;;;;;;;3.88;1.95;;;23.70;31.00;;;;;;5024403;28;20477;-67
2023/02/02 13:40:46;;;;;;;3.08;1.70;;;23.70;31.00;;;;;;5025835;28;20061;-66
2023/02/02 13:43:41;;;;;;;2.03;1.65;;;23.70;31.00;;;;;;5024681;28;20394;-69
2023/02/02 13:46:32;;;;;;;3.10;1.60;;;23.70;31.00;;;;;;5022253;28;20065;-70
2023/02/02 13:49:26;;;;;;;2.58;1.58;;;23.60;30.90;;;;;;5023916;28;20080;-70
2023/02/02 13:52:10;;;;;;;5.32;1.60;;;23.60;31.00;;;;;;5022537;28;20081;-67
2023/02/02 13:55:01;;;;;;;3.67;2.33;;;23.60;31.00;;;;;;5025839;28;20077;-67
2023/02/02 13:57:58;;;;;;;2.92;1.75;;;23.60;31.00;;;;;;5021825;28;20045;-66
2023/02/02 14:00:32;;;;;;;4.65;2.28;;;23.60;31.10;;;;;;5019592;28;20052;-67
2023/02/02 14:03:06;;;;;;;3.97;2.30;;;23.60;31.20;;;;;;5021757;28;20147;-66
2023/02/02 14:05:38;;;;;;;3.25;2.08;;;23.60;31.20;;;;;;5022869;28;20048;-72
2023/02/02 14:08:18;;;;;;;2.72;1.77;;;23.60;31.30;;;;;;5024997;28;20515;-69
2023/02/02 14:11:03;;;;;;;3.17;2.00;;;23.50;31.20;;;;;;5025592;28;20041;-66
2023/02/02 14:16:46;;;;;;;7.00;3.15;;;23.50;31.40;;;;;;5021859;28;20493;-67
2023/02/02 14:19:35;;;;;;;6.03;3.10;;;23.50;31.30;;;;;;5021693;28;20053;-67
2023/02/02 14:22:18;;;;;;;7.07;4.03;;;23.40;31.30;;;;;;5022538;28;20064;-68
2023/02/02 14:24:49;;;;;;;5.95;2.90;;;23.40;31.40;;;;;;4981418;28;20041;-67
2023/02/02 14:27:40;;;;;;;8.85;3.30;;;23.40;31.40;;;;;;5005920;28;20052;-69
2023/02/02 14:30:20;;;;;;;11.93;4.28;;;23.40;31.40;;;;;;5011315;28;20041;-66
2023/02/02 14:32:47;;;;;;;7.38;4.18;;;23.40;31.50;;;;;;5006560;28;20053;-68
2023/02/02 14:35:55;;;;;;;8.80;3.88;;;23.40;31.60;;;;;;5021140;28;20053;-67
2023/02/02 14:38:44;;;;;;;10.75;4.03;;;23.30;31.50;;;;;;5021098;28;20052;-66
2023/02/02 14:44:11;;;;;;;9.32;3.30;;;23.30;31.60;;;;;;5023642;28;20049;-68
2023/02/02 14:46:40;;;;;;;8.50;3.50;;;23.30;31.60;;;;;;5018978;28;20053;-69
2023/02/02 14:49:12;;;;;;;5.95;3.38;;;23.30;31.60;;;;;;5019758;28;20045;-67
2023/02/02 14:51:54;;;;;;;12.52;3.28;;;23.30;31.60;;;;;;5022551;28;20132;-66
2023/02/02 14:54:29;;;;;;;8.05;3.65;;;23.30;31.60;;;;;;5024892;28;20053;-64
2023/02/02 14:57:03;;;;;;;7.70;3.85;;;23.20;31.60;;;;;;5019848;28;20132;-65
2023/02/02 14:59:39;;;;;;;7.78;3.72;;;23.20;31.60;;;;;;5022717;28;20560;-68
2023/02/02 15:02:31;;;;;;;10.68;4.38;;;23.20;31.60;;;;;;5018797;28;20394;-68
2023/02/02 15:05:37;;;;;;;10.30;4.60;;;23.20;31.60;;;;;;5026408;28;20057;-64
2023/02/02 15:08:24;;;;;;;7.20;4.10;;;23.20;32.00;;;;;;5019672;28;20042;-67
2023/02/02 15:10:58;;;;;;;6.95;4.07;;;23.20;32.20;;;;;;5023171;28;20054;-67
2023/02/02 15:13:36;;;;;;;8.25;4.40;;;23.10;32.40;;;;;;5023224;28;20042;-65
2023/02/02 15:16:13;;;;;;;8.35;4.57;;;23.20;32.60;;;;;;5024064;28;20485;-64
2023/02/02 15:18:45;;;;;;;10.63;4.85;;;23.10;32.90;;;;;;5022187;28;20104;-72
2023/02/02 15:21:20;;;;;;;8.23;4.43;;;23.10;33.00;;;;;;5023650;28;20136;-70